sensor_id;sensor_type;location;lat;lon;timestamp;P1;durP1;ratioP1;P2;durP2;ratioP2
19492;SDS011;9887;54.366;10.958;2024-01-07T00:00:36;4.97;;;1.85;;
19492;SDS011;9887;54.366;10.958;2024-01-07T00:03:07;4.07;;;1.83;;
19492;SDS011;9887;54.366;10.958;2024-01-07T00:05:36;3.30;;;1.40;;
19492;SDS011;9887;54.366;10.958;2024-01-07T00:08:05;5.07;;;1.58;;
19492;SDS011;9887;54.366;10.958;2024-01-07T00:10:33;3.28;;;1.40;;
19492;SDS011;9887;54.366;10.958;2024-01-07T00:13:01;3.95;;;1.20;;
19492;SDS011;9887;54.366;10.958;2024-01-07T00:15:29;2.42;;;1.25;;
19492;SDS011;9887;54.366;10.958;2024-01-07T00:17:57;6.07;;;1.40;;
19492;SDS011;9887;54.366;10.958;2024-01-07T00:20:27;5.82;;;1.40;;
19492;SDS011;9887;54.366;10.958;2024-01-07T00:22:54;2.58;;;1.20;;
19492;SDS011;9887;54.366;10.958;2024-01-07T00:25:22;3.00;;;1.48;;
19492;SDS011;9887;54.366;10.958;2024-01-07T00:27:50;3.55;;;1.40;;
19492;SDS011;9887;54.366;10.958;2024-01-07T00:30:21;4.53;;;1.77;;
19492;SDS011;9887;54.366;10.958;2024-01-07T00:32:49;3.28;;;1.50;;
19492;SDS011;9887;54.366;10.958;2024-01-07T00:35:18;4.72;;;1.45;;
19492;SDS011;9887;54.366;10.958;2024-01-07T00:37:47;3.85;;;1.35;;
19492;SDS011;9887;54.366;10.958;2024-01-07T00:40:15;5.25;;;1.60;;
19492;SDS011;9887;54.366;10.958;2024-01-07T00:42:43;2.72;;;1.48;;
19492;SDS011;9887;54.366;10.958;2024-01-07T00:45:11;2.58;;;1.48;;
19492;SDS011;9887;54.366;10.958;2024-01-07T00:47:39;3.88;;;1.42;;
19492;SDS011;9887;54.366;10.958;2024-01-07T00:50:07;2.45;;;1.35;;
19492;SDS011;9887;54.366;10.958;2024-01-07T00:52:35;3.55;;;1.50;;
19492;SDS011;9887;54.366;10.958;2024-01-07T00:55:06;3.65;;;1.38;;
19492;SDS011;9887;54.366;10.958;2024-01-07T00:57:34;4.93;;;1.50;;
19492;SDS011;9887;54.366;10.958;2024-01-07T01:00:04;2.40;;;1.40;;
19492;SDS011;9887;54.366;10.958;2024-01-07T01:02:34;4.47;;;1.50;;
19492;SDS011;9887;54.366;10.958;2024-01-07T01:05:03;2.42;;;1.40;;
19492;SDS011;9887;54.366;10.958;2024-01-07T01:07:32;3.85;;;1.50;;
19492;SDS011;9887;54.366;10.958;2024-01-07T01:10:00;3.15;;;1.50;;
19492;SDS011;9887;54.366;10.958;2024-01-07T01:12:30;4.47;;;1.35;;
19492;SDS011;9887;54.366;10.958;2024-01-07T01:14:58;3.08;;;1.55;;
19492;SDS011;9887;54.366;10.958;2024-01-07T01:17:26;3.05;;;1.40;;
19492;SDS011;9887;54.366;10.958;2024-01-07T01:19:54;2.47;;;1.45;;
19492;SDS011;9887;54.366;10.958;2024-01-07T01:22:22;4.05;;;1.50;;
19492;SDS011;9887;54.366;10.958;2024-01-07T01:24:49;3.13;;;1.30;;
19492;SDS011;9887;54.366;10.958;2024-01-07T01:27:19;4.07;;;1.35;;
19492;SDS011;9887;54.366;10.958;2024-01-07T01:29:48;2.95;;;1.30;;
19492;SDS011;9887;54.366;10.958;2024-01-07T01:32:16;3.17;;;1.48;;
19492;SDS011;9887;54.366;10.958;2024-01-07T01:34:44;2.28;;;1.30;;
19492;SDS011;9887;54.366;10.958;2024-01-07T01:37:12;3.45;;;1.52;;
19492;SDS011;9887;54.366;10.958;2024-01-07T01:39:40;5.03;;;1.42;;
19492;SDS011;9887;54.366;10.958;2024-01-07T01:42:08;3.75;;;1.27;;
19492;SDS011;9887;54.366;10.958;2024-01-07T01:44:36;1.30;;;1.00;;
19492;SDS011;9887;54.366;10.958;2024-01-07T01:47:05;3.35;;;1.75;;
19492;SDS011;9887;54.366;10.958;2024-01-07T01:49:34;4.95;;;1.80;;
19492;SDS011;9887;54.366;10.958;2024-01-07T01:52:04;4.03;;;2.00;;
19492;SDS011;9887;54.366;10.958;2024-01-07T01:54:32;4.15;;;2.33;;
19492;SDS011;9887;54.366;10.958;2024-01-07T01:57:00;6.60;;;2.53;;
19492;SDS011;9887;54.366;10.958;2024-01-07T01:59:28;4.47;;;2.47;;
19492;SDS011;9887;54.366;10.958;2024-01-07T02:01:56;5.65;;;2.33;;
19492;SDS011;9887;54.366;10.958;2024-01-07T02:04:26;5.25;;;2.70;;
19492;SDS011;9887;54.366;10.958;2024-01-07T02:06:54;4.47;;;2.35;;
19492;SDS011;9887;54.366;10.958;2024-01-07T02:09:22;7.72;;;3.20;;
19492;SDS011;9887;54.366;10.958;2024-01-07T02:11:59;5.65;;;2.63;;
19492;SDS011;9887;54.366;10.958;2024-01-07T02:14:29;4.13;;;2.40;;
19492;SDS011;9887;54.366;10.958;2024-01-07T02:16:56;5.07;;;2.60;;
19492;SDS011;9887;54.366;10.958;2024-01-07T02:19:26;5.53;;;2.50;;
19492;SDS011;9887;54.366;10.958;2024-01-07T02:21:54;5.97;;;2.65;;
19492;SDS011;9887;54.366;10.958;2024-01-07T02:24:23;7.78;;;2.80;;
19492;SDS011;9887;54.366;10.958;2024-01-07T02:26:51;5.95;;;2.63;;
19492;SDS011;9887;54.366;10.958;2024-01-07T02:29:19;5.75;;;2.53;;
19492;SDS011;9887;54.366;10.958;2024-01-07T02:31:47;4.65;;;2.30;;
19492;SDS011;9887;54.366;10.958;2024-01-07T02:34:15;4.85;;;2.47;;
19492;SDS011;9887;54.366;10.958;2024-01-07T02:36:43;5.45;;;2.03;;
19492;SDS011;9887;54.366;10.958;2024-01-07T02:39:11;6.00;;;2.47;;
19492;SDS011;9887;54.366;10.958;2024-01-07T02:41:40;5.63;;;2.10;;
19492;SDS011;9887;54.366;10.958;2024-01-07T02:44:08;6.43;;;2.33;;
19492;SDS011;9887;54.366;10.958;2024-01-07T02:46:38;4.88;;;2.17;;
19492;SDS011;9887;54.366;10.958;2024-01-07T02:49:06;4.20;;;2.03;;
19492;SDS011;9887;54.366;10.958;2024-01-07T02:51:34;4.63;;;2.22;;
19492;SDS011;9887;54.366;10.958;2024-01-07T02:54:02;7.10;;;2.40;;
19492;SDS011;9887;54.366;10.958;2024-01-07T02:56:30;6.65;;;2.20;;
19492;SDS011;9887;54.366;10.958;2024-01-07T02:58:59;6.45;;;2.50;;
19492;SDS011;9887;54.366;10.958;2024-01-07T03:01:27;4.53;;;2.00;;
19492;SDS011;9887;54.366;10.958;2024-01-07T03:03:55;6.03;;;2.55;;
19492;SDS011;9887;54.366;10.958;2024-01-07T03:06:26;5.75;;;2.00;;
19492;SDS011;9887;54.366;10.958;2024-01-07T03:08:54;6.97;;;2.30;;
19492;SDS011;9887;54.366;10.958;2024-01-07T03:11:22;4.65;;;2.40;;
19492;SDS011;9887;54.366;10.958;2024-01-07T03:13:50;5.97;;;2.30;;
19492;SDS011;9887;54.366;10.958;2024-01-07T03:16:22;4.20;;;2.13;;
19492;SDS011;9887;54.366;10.958;2024-01-07T03:18:51;4.20;;;2.13;;
19492;SDS011;9887;54.366;10.958;2024-01-07T03:21:19;3.83;;;1.80;;
19492;SDS011;9887;54.366;10.958;2024-01-07T03:23:48;4.03;;;1.75;;
19492;SDS011;9887;54.366;10.958;2024-01-07T03:26:18;5.30;;;2.47;;
19492;SDS011;9887;54.366;10.958;2024-01-07T03:28:47;5.38;;;2.20;;
19492;SDS011;9887;54.366;10.958;2024-01-07T03:31:15;4.57;;;2.22;;
19492;SDS011;9887;54.366;10.958;2024-01-07T03:33:47;5.82;;;2.10;;
19492;SDS011;9887;54.366;10.958;2024-01-07T03:36:15;6.38;;;2.20;;
19492;SDS011;9887;54.366;10.958;2024-01-07T03:38:43;4.72;;;2.03;;
19492;SDS011;9887;54.366;10.958;2024-01-07T03:41:15;3.80;;;1.92;;
19492;SDS011;9887;54.366;10.958;2024-01-07T03:43:45;7.10;;;1.95;;
19492;SDS011;9887;54.366;10.958;2024-01-07T03:46:13;5.18;;;1.90;;
19492;SDS011;9887;54.366;10.958;2024-01-07T03:48:41;8.57;;;2.83;;
19492;SDS011;9887;54.366;10.958;2024-01-07T03:51:10;8.10;;;3.40;;
19492;SDS011;9887;54.366;10.958;2024-01-07T03:53:38;7.20;;;3.60;;
19492;SDS011;9887;54.366;10.958;2024-01-07T03:56:06;6.63;;;3.28;;
19492;SDS011;9887;54.366;10.958;2024-01-07T03:58:34;7.47;;;3.97;;
19492;SDS011;9887;54.366;10.958;2024-01-07T04:01:01;12.38;;;7.20;;
19492;SDS011;9887;54.366;10.958;2024-01-07T04:03:30;11.02;;;6.82;;
19492;SDS011;9887;54.366;10.958;2024-01-07T04:05:58;15.70;;;8.57;;
19492;SDS011;9887;54.366;10.958;2024-01-07T04:08:28;15.65;;;8.60;;
19492;SDS011;9887;54.366;10.958;2024-01-07T04:10:56;15.55;;;6.88;;
19492;SDS011;9887;54.366;10.958;2024-01-07T04:13:24;10.43;;;5.60;;
19492;SDS011;9887;54.366;10.958;2024-01-07T04:15:51;7.80;;;4.68;;
19492;SDS011;9887;54.366;10.958;2024-01-07T04:18:20;6.70;;;3.25;;
19492;SDS011;9887;54.366;10.958;2024-01-07T04:20:48;7.13;;;3.10;;
19492;SDS011;9887;54.366;10.958;2024-01-07T04:23:16;5.20;;;2.70;;
19492;SDS011;9887;54.366;10.958;2024-01-07T04:25:45;5.32;;;2.45;;
19492;SDS011;9887;54.366;10.958;2024-01-07T04:28:13;6.05;;;2.33;;
19492;SDS011;9887;54.366;10.958;2024-01-07T04:30:40;4.47;;;2.17;;
19492;SDS011;9887;54.366;10.958;2024-01-07T04:33:09;6.35;;;2.40;;
19492;SDS011;9887;54.366;10.958;2024-01-07T04:35:36;4.05;;;2.00;;
19492;SDS011;9887;54.366;10.958;2024-01-07T04:38:04;3.28;;;2.00;;
19492;SDS011;9887;54.366;10.958;2024-01-07T04:40:32;7.90;;;2.00;;
19492;SDS011;9887;54.366;10.958;2024-01-07T04:43:01;4.57;;;1.90;;
19492;SDS011;9887;54.366;10.958;2024-01-07T04:45:29;5.45;;;2.10;;
19492;SDS011;9887;54.366;10.958;2024-01-07T04:47:57;4.15;;;1.90;;
19492;SDS011;9887;54.366;10.958;2024-01-07T04:50:25;4.20;;;2.00;;
19492;SDS011;9887;54.366;10.958;2024-01-07T04:52:53;3.70;;;2.00;;
19492;SDS011;9887;54.366;10.958;2024-01-07T04:55:20;3.88;;;2.03;;
19492;SDS011;9887;54.366;10.958;2024-01-07T04:57:49;3.78;;;1.90;;
19492;SDS011;9887;54.366;10.958;2024-01-07T05:00:18;3.63;;;1.95;;
19492;SDS011;9887;54.366;10.958;2024-01-07T05:02:46;4.57;;;1.98;;
19492;SDS011;9887;54.366;10.958;2024-01-07T05:05:14;5.10;;;1.83;;
19492;SDS011;9887;54.366;10.958;2024-01-07T05:07:42;5.15;;;2.00;;
19492;SDS011;9887;54.366;10.958;2024-01-07T05:10:10;3.22;;;1.85;;
19492;SDS011;9887;54.366;10.958;2024-01-07T05:12:38;5.55;;;1.98;;
19492;SDS011;9887;54.366;10.958;2024-01-07T05:15:06;3.80;;;1.70;;
19492;SDS011;9887;54.366;10.958;2024-01-07T05:17:37;4.35;;;1.95;;
19492;SDS011;9887;54.366;10.958;2024-01-07T05:20:05;4.65;;;1.90;;
19492;SDS011;9887;54.366;10.958;2024-01-07T05:22:35;6.63;;;1.70;;
19492;SDS011;9887;54.366;10.958;2024-01-07T05:25:03;3.67;;;1.65;;
19492;SDS011;9887;54.366;10.958;2024-01-07T05:27:32;5.38;;;2.05;;
19492;SDS011;9887;54.366;10.958;2024-01-07T05:30:07;3.90;;;1.80;;
19492;SDS011;9887;54.366;10.958;2024-01-07T05:32:37;7.47;;;2.25;;
19492;SDS011;9887;54.366;10.958;2024-01-07T05:35:05;3.55;;;1.90;;
19492;SDS011;9887;54.366;10.958;2024-01-07T05:37:33;3.13;;;1.80;;
19492;SDS011;9887;54.366;10.958;2024-01-07T05:40:01;3.83;;;1.98;;
19492;SDS011;9887;54.366;10.958;2024-01-07T05:42:30;3.78;;;1.80;;
19492;SDS011;9887;54.366;10.958;2024-01-07T05:44:58;5.15;;;1.77;;
19492;SDS011;9887;54.366;10.958;2024-01-07T05:47:26;4.40;;;2.00;;
19492;SDS011;9887;54.366;10.958;2024-01-07T05:49:55;5.85;;;1.95;;
19492;SDS011;9887;54.366;10.958;2024-01-07T05:52:23;3.40;;;1.70;;
19492;SDS011;9887;54.366;10.958;2024-01-07T05:54:51;4.80;;;1.70;;
19492;SDS011;9887;54.366;10.958;2024-01-07T05:57:19;3.17;;;1.63;;
19492;SDS011;9887;54.366;10.958;2024-01-07T05:59:47;3.95;;;1.95;;
19492;SDS011;9887;54.366;10.958;2024-01-07T06:02:20;4.50;;;1.95;;
19492;SDS011;9887;54.366;10.958;2024-01-07T06:04:49;3.85;;;1.90;;
19492;SDS011;9887;54.366;10.958;2024-01-07T06:07:18;2.78;;;1.70;;
19492;SDS011;9887;54.366;10.958;2024-01-07T06:09:46;4.10;;;1.92;;
19492;SDS011;9887;54.366;10.958;2024-01-07T06:12:14;5.10;;;2.00;;
19492;SDS011;9887;54.366;10.958;2024-01-07T06:14:42;3.80;;;1.60;;
19492;SDS011;9887;54.366;10.958;2024-01-07T06:17:10;4.15;;;1.83;;
19492;SDS011;9887;54.366;10.958;2024-01-07T06:19:38;3.35;;;1.85;;
19492;SDS011;9887;54.366;10.958;2024-01-07T06:22:06;5.35;;;1.90;;
19492;SDS011;9887;54.366;10.958;2024-01-07T06:24:36;4.28;;;1.92;;
19492;SDS011;9887;54.366;10.958;2024-01-07T06:27:04;5.53;;;1.88;;
19492;SDS011;9887;54.366;10.958;2024-01-07T06:29:32;3.90;;;1.95;;
19492;SDS011;9887;54.366;10.958;2024-01-07T06:32:00;3.83;;;1.90;;
19492;SDS011;9887;54.366;10.958;2024-01-07T06:34:30;3.17;;;1.90;;
19492;SDS011;9887;54.366;10.958;2024-01-07T06:36:59;3.50;;;1.90;;
19492;SDS011;9887;54.366;10.958;2024-01-07T06:39:27;2.97;;;1.75;;
19492;SDS011;9887;54.366;10.958;2024-01-07T06:41:56;3.95;;;2.10;;
19492;SDS011;9887;54.366;10.958;2024-01-07T06:44:24;5.72;;;2.00;;
19492;SDS011;9887;54.366;10.958;2024-01-07T06:46:52;4.68;;;2.03;;
19492;SDS011;9887;54.366;10.958;2024-01-07T06:49:20;3.72;;;2.17;;
19492;SDS011;9887;54.366;10.958;2024-01-07T06:51:48;2.95;;;1.90;;
19492;SDS011;9887;54.366;10.958;2024-01-07T06:54:16;5.05;;;2.13;;
19492;SDS011;9887;54.366;10.958;2024-01-07T06:56:44;4.18;;;2.17;;
19492;SDS011;9887;54.366;10.958;2024-01-07T06:59:13;4.05;;;2.08;;
19492;SDS011;9887;54.366;10.958;2024-01-07T07:01:41;3.08;;;2.13;;
19492;SDS011;9887;54.366;10.958;2024-01-07T07:04:09;4.10;;;2.10;;
19492;SDS011;9887;54.366;10.958;2024-01-07T07:06:37;4.82;;;2.10;;
19492;SDS011;9887;54.366;10.958;2024-01-07T07:09:05;4.53;;;2.35;;
19492;SDS011;9887;54.366;10.958;2024-01-07T07:11:33;4.85;;;2.47;;
19492;SDS011;9887;54.366;10.958;2024-01-07T07:14:01;3.70;;;1.90;;
19492;SDS011;9887;54.366;10.958;2024-01-07T07:16:31;4.10;;;2.20;;
19492;SDS011;9887;54.366;10.958;2024-01-07T07:18:58;4.60;;;2.28;;
19492;SDS011;9887;54.366;10.958;2024-01-07T07:21:27;4.63;;;2.30;;
19492;SDS011;9887;54.366;10.958;2024-01-07T07:23:54;3.95;;;2.05;;
19492;SDS011;9887;54.366;10.958;2024-01-07T07:26:22;4.00;;;2.10;;
19492;SDS011;9887;54.366;10.958;2024-01-07T07:28:50;5.38;;;2.85;;
19492;SDS011;9887;54.366;10.958;2024-01-07T07:31:18;7.13;;;3.70;;
19492;SDS011;9887;54.366;10.958;2024-01-07T07:33:51;12.25;;;4.10;;
19492;SDS011;9887;54.366;10.958;2024-01-07T07:36:19;7.63;;;3.83;;
19492;SDS011;9887;54.366;10.958;2024-01-07T07:38:49;8.38;;;3.95;;
19492;SDS011;9887;54.366;10.958;2024-01-07T07:41:17;11.38;;;3.97;;
19492;SDS011;9887;54.366;10.958;2024-01-07T07:43:45;5.70;;;3.30;;
19492;SDS011;9887;54.366;10.958;2024-01-07T07:46:13;6.55;;;3.05;;
19492;SDS011;9887;54.366;10.958;2024-01-07T07:48:42;4.20;;;2.50;;
19492;SDS011;9887;54.366;10.958;2024-01-07T07:51:12;6.38;;;2.85;;
19492;SDS011;9887;54.366;10.958;2024-01-07T07:53:40;4.32;;;2.30;;
19492;SDS011;9887;54.366;10.958;2024-01-07T07:56:11;5.10;;;2.58;;
19492;SDS011;9887;54.366;10.958;2024-01-07T07:58:39;5.30;;;2.70;;
19492;SDS011;9887;54.366;10.958;2024-01-07T08:01:07;4.32;;;2.50;;
19492;SDS011;9887;54.366;10.958;2024-01-07T08:03:37;6.15;;;2.38;;
19492;SDS011;9887;54.366;10.958;2024-01-07T08:06:05;4.38;;;2.47;;
19492;SDS011;9887;54.366;10.958;2024-01-07T08:08:39;3.83;;;2.35;;
19492;SDS011;9887;54.366;10.958;2024-01-07T08:11:07;3.40;;;2.30;;
19492;SDS011;9887;54.366;10.958;2024-01-07T08:13:36;6.47;;;2.13;;
19492;SDS011;9887;54.366;10.958;2024-01-07T08:16:05;3.78;;;2.20;;
19492;SDS011;9887;54.366;10.958;2024-01-07T08:18:33;4.30;;;2.42;;
19492;SDS011;9887;54.366;10.958;2024-01-07T08:21:02;7.88;;;3.40;;
19492;SDS011;9887;54.366;10.958;2024-01-07T08:23:30;7.13;;;4.63;;
19492;SDS011;9887;54.366;10.958;2024-01-07T08:25:59;7.70;;;3.92;;
19492;SDS011;9887;54.366;10.958;2024-01-07T08:28:27;6.43;;;3.47;;
19492;SDS011;9887;54.366;10.958;2024-01-07T08:30:55;5.70;;;3.08;;
19492;SDS011;9887;54.366;10.958;2024-01-07T08:33:23;5.07;;;2.80;;
19492;SDS011;9887;54.366;10.958;2024-01-07T08:35:51;4.00;;;2.55;;
19492;SDS011;9887;54.366;10.958;2024-01-07T08:38:19;4.55;;;2.30;;
19492;SDS011;9887;54.366;10.958;2024-01-07T08:40:48;3.80;;;2.30;;
19492;SDS011;9887;54.366;10.958;2024-01-07T08:43:17;4.47;;;1.92;;
19492;SDS011;9887;54.366;10.958;2024-01-07T08:45:45;4.53;;;2.38;;
19492;SDS011;9887;54.366;10.958;2024-01-07T08:48:13;5.30;;;2.72;;
19492;SDS011;9887;54.366;10.958;2024-01-07T08:50:41;6.25;;;3.90;;
19492;SDS011;9887;54.366;10.958;2024-01-07T08:53:09;13.20;;;4.88;;
19492;SDS011;9887;54.366;10.958;2024-01-07T08:55:38;7.57;;;4.70;;
19492;SDS011;9887;54.366;10.958;2024-01-07T08:58:09;7.43;;;4.38;;
19492;SDS011;9887;54.366;10.958;2024-01-07T09:00:38;8.57;;;5.15;;
19492;SDS011;9887;54.366;10.958;2024-01-07T09:03:06;13.00;;;8.00;;
19492;SDS011;9887;54.366;10.958;2024-01-07T09:05:34;17.67;;;10.05;;
19492;SDS011;9887;54.366;10.958;2024-01-07T09:08:08;17.98;;;10.60;;
19492;SDS011;9887;54.366;10.958;2024-01-07T09:10:41;17.17;;;11.18;;
19492;SDS011;9887;54.366;10.958;2024-01-07T09:13:09;14.13;;;9.43;;
19492;SDS011;9887;54.366;10.958;2024-01-07T09:15:38;11.77;;;7.85;;
19492;SDS011;9887;54.366;10.958;2024-01-07T09:18:06;10.63;;;6.75;;
19492;SDS011;9887;54.366;10.958;2024-01-07T09:20:35;8.77;;;5.38;;
19492;SDS011;9887;54.366;10.958;2024-01-07T09:23:03;7.03;;;4.38;;
19492;SDS011;9887;54.366;10.958;2024-01-07T09:25:31;6.38;;;3.92;;
19492;SDS011;9887;54.366;10.958;2024-01-07T09:27:59;5.68;;;3.20;;
19492;SDS011;9887;54.366;10.958;2024-01-07T09:30:28;5.45;;;2.90;;
19492;SDS011;9887;54.366;10.958;2024-01-07T09:32:57;4.45;;;2.75;;
19492;SDS011;9887;54.366;10.958;2024-01-07T09:35:25;3.58;;;2.25;;
19492;SDS011;9887;54.366;10.958;2024-01-07T09:37:53;6.13;;;3.00;;
19492;SDS011;9887;54.366;10.958;2024-01-07T09:40:21;4.97;;;3.30;;
19492;SDS011;9887;54.366;10.958;2024-01-07T09:42:50;6.13;;;3.65;;
19492;SDS011;9887;54.366;10.958;2024-01-07T09:45:18;5.40;;;2.92;;
19492;SDS011;9887;54.366;10.958;2024-01-07T09:47:48;4.88;;;2.95;;
19492;SDS011;9887;54.366;10.958;2024-01-07T09:50:18;9.07;;;2.95;;
19492;SDS011;9887;54.366;10.958;2024-01-07T09:52:46;4.53;;;2.50;;
19492;SDS011;9887;54.366;10.958;2024-01-07T09:55:20;4.78;;;2.80;;
19492;SDS011;9887;54.366;10.958;2024-01-07T09:57:53;4.68;;;2.38;;
19492;SDS011;9887;54.366;10.958;2024-01-07T10:00:21;6.78;;;2.53;;
19492;SDS011;9887;54.366;10.958;2024-01-07T10:02:49;6.47;;;2.83;;
19492;SDS011;9887;54.366;10.958;2024-01-07T10:05:19;4.28;;;2.45;;
19492;SDS011;9887;54.366;10.958;2024-01-07T10:07:47;4.90;;;2.60;;
19492;SDS011;9887;54.366;10.958;2024-01-07T10:10:15;7.32;;;2.78;;
19492;SDS011;9887;54.366;10.958;2024-01-07T10:12:44;6.70;;;3.17;;
19492;SDS011;9887;54.366;10.958;2024-01-07T10:15:13;5.88;;;3.47;;
19492;SDS011;9887;54.366;10.958;2024-01-07T10:17:41;7.18;;;3.65;;
19492;SDS011;9887;54.366;10.958;2024-01-07T10:20:10;6.90;;;3.63;;
19492;SDS011;9887;54.366;10.958;2024-01-07T10:22:41;6.70;;;3.40;;
19492;SDS011;9887;54.366;10.958;2024-01-07T10:25:14;7.20;;;3.13;;
19492;SDS011;9887;54.366;10.958;2024-01-07T10:27:42;4.85;;;3.13;;
19492;SDS011;9887;54.366;10.958;2024-01-07T10:30:11;4.68;;;2.85;;
19492;SDS011;9887;54.366;10.958;2024-01-07T10:32:40;4.72;;;2.85;;
19492;SDS011;9887;54.366;10.958;2024-01-07T10:35:12;5.38;;;3.42;;
19492;SDS011;9887;54.366;10.958;2024-01-07T10:37:43;7.68;;;5.00;;
19492;SDS011;9887;54.366;10.958;2024-01-07T10:40:12;21.02;;;10.52;;
19492;SDS011;9887;54.366;10.958;2024-01-07T10:42:40;27.92;;;11.80;;
19492;SDS011;9887;54.366;10.958;2024-01-07T10:45:11;39.17;;;15.20;;
19492;SDS011;9887;54.366;10.958;2024-01-07T10:47:39;41.67;;;15.35;;
19492;SDS011;9887;54.366;10.958;2024-01-07T10:50:08;24.00;;;10.30;;
19492;SDS011;9887;54.366;10.958;2024-01-07T10:52:41;21.42;;;9.00;;
19492;SDS011;9887;54.366;10.958;2024-01-07T10:55:13;22.45;;;8.90;;
19492;SDS011;9887;54.366;10.958;2024-01-07T10:57:45;18.35;;;8.27;;
19492;SDS011;9887;54.366;10.958;2024-01-07T11:00:16;21.45;;;8.15;;
19492;SDS011;9887;54.366;10.958;2024-01-07T11:02:51;13.85;;;6.20;;
19492;SDS011;9887;54.366;10.958;2024-01-07T11:05:29;11.50;;;4.72;;
19492;SDS011;9887;54.366;10.958;2024-01-07T11:08:13;8.40;;;4.10;;
19492;SDS011;9887;54.366;10.958;2024-01-07T11:10:47;10.23;;;4.90;;
19492;SDS011;9887;54.366;10.958;2024-01-07T11:13:31;6.55;;;4.38;;
19492;SDS011;9887;54.366;10.958;2024-01-07T11:16:01;5.78;;;3.80;;
19492;SDS011;9887;54.366;10.958;2024-01-07T11:18:30;6.53;;;4.55;;
19492;SDS011;9887;54.366;10.958;2024-01-07T11:21:00;10.38;;;5.53;;
19492;SDS011;9887;54.366;10.958;2024-01-07T11:23:31;10.48;;;6.00;;
19492;SDS011;9887;54.366;10.958;2024-01-07T11:26:00;7.45;;;4.60;;
19492;SDS011;9887;54.366;10.958;2024-01-07T11:28:48;6.15;;;3.83;;
19492;SDS011;9887;54.366;10.958;2024-01-07T11:31:17;5.55;;;3.70;;
19492;SDS011;9887;54.366;10.958;2024-01-07T11:33:47;5.07;;;2.95;;
19492;SDS011;9887;54.366;10.958;2024-01-07T11:36:17;4.95;;;2.70;;
19492;SDS011;9887;54.366;10.958;2024-01-07T11:38:49;5.53;;;2.58;;
19492;SDS011;9887;54.366;10.958;2024-01-07T11:41:20;6.57;;;2.70;;
19492;SDS011;9887;54.366;10.958;2024-01-07T11:43:53;4.25;;;2.65;;
19492;SDS011;9887;54.366;10.958;2024-01-07T11:46:22;4.65;;;2.13;;
19492;SDS011;9887;54.366;10.958;2024-01-07T11:48:52;6.30;;;2.50;;
19492;SDS011;9887;54.366;10.958;2024-01-07T11:51:25;5.65;;;2.80;;
19492;SDS011;9887;54.366;10.958;2024-01-07T11:53:55;4.70;;;2.72;;
19492;SDS011;9887;54.366;10.958;2024-01-07T11:56:23;4.78;;;2.75;;
19492;SDS011;9887;54.366;10.958;2024-01-07T11:58:53;5.47;;;3.15;;
19492;SDS011;9887;54.366;10.958;2024-01-07T12:01:22;5.22;;;2.78;;
19492;SDS011;9887;54.366;10.958;2024-01-07T12:03:52;4.55;;;2.80;;
19492;SDS011;9887;54.366;10.958;2024-01-07T12:06:20;5.20;;;2.97;;
19492;SDS011;9887;54.366;10.958;2024-01-07T12:08:48;5.57;;;2.88;;
19492;SDS011;9887;54.366;10.958;2024-01-07T12:11:18;5.32;;;2.50;;
19492;SDS011;9887;54.366;10.958;2024-01-07T12:13:47;3.72;;;2.30;;
19492;SDS011;9887;54.366;10.958;2024-01-07T12:16:16;4.80;;;2.15;;
19492;SDS011;9887;54.366;10.958;2024-01-07T12:18:45;3.80;;;2.20;;
19492;SDS011;9887;54.366;10.958;2024-01-07T12:21:18;4.78;;;2.42;;
19492;SDS011;9887;54.366;10.958;2024-01-07T12:23:47;5.43;;;2.20;;
19492;SDS011;9887;54.366;10.958;2024-01-07T12:26:18;4.78;;;2.60;;
19492;SDS011;9887;54.366;10.958;2024-01-07T12:28:51;8.15;;;3.75;;
19492;SDS011;9887;54.366;10.958;2024-01-07T12:31:20;6.63;;;3.85;;
19492;SDS011;9887;54.366;10.958;2024-01-07T12:33:48;7.82;;;4.20;;
19492;SDS011;9887;54.366;10.958;2024-01-07T12:36:16;6.72;;;4.00;;
19492;SDS011;9887;54.366;10.958;2024-01-07T12:38:48;8.35;;;4.38;;
19492;SDS011;9887;54.366;10.958;2024-01-07T12:41:18;7.47;;;4.43;;
19492;SDS011;9887;54.366;10.958;2024-01-07T12:43:47;7.72;;;5.00;;
19492;SDS011;9887;54.366;10.958;2024-01-07T12:46:15;6.28;;;3.60;;
19492;SDS011;9887;54.366;10.958;2024-01-07T12:48:43;5.03;;;3.30;;
19492;SDS011;9887;54.366;10.958;2024-01-07T12:51:11;4.75;;;2.90;;
19492;SDS011;9887;54.366;10.958;2024-01-07T12:53:39;5.32;;;3.08;;
19492;SDS011;9887;54.366;10.958;2024-01-07T12:56:07;4.38;;;2.70;;
19492;SDS011;9887;54.366;10.958;2024-01-07T12:58:36;4.25;;;2.42;;
19492;SDS011;9887;54.366;10.958;2024-01-07T13:01:05;9.98;;;4.97;;
19492;SDS011;9887;54.366;10.958;2024-01-07T13:03:34;12.50;;;6.10;;
19492;SDS011;9887;54.366;10.958;2024-01-07T13:06:02;16.52;;;5.68;;
19492;SDS011;9887;54.366;10.958;2024-01-07T13:08:31;8.15;;;4.15;;
19492;SDS011;9887;54.366;10.958;2024-01-07T13:10:59;9.10;;;4.10;;
19492;SDS011;9887;54.366;10.958;2024-01-07T13:13:27;6.68;;;4.10;;
19492;SDS011;9887;54.366;10.958;2024-01-07T13:15:56;5.78;;;3.40;;
19492;SDS011;9887;54.366;10.958;2024-01-07T13:18:27;4.80;;;3.05;;
19492;SDS011;9887;54.366;10.958;2024-01-07T13:20:55;7.00;;;3.40;;
19492;SDS011;9887;54.366;10.958;2024-01-07T13:23:24;6.32;;;3.50;;
19492;SDS011;9887;54.366;10.958;2024-01-07T13:25:52;6.15;;;3.63;;
19492;SDS011;9887;54.366;10.958;2024-01-07T13:28:20;7.80;;;4.03;;
19492;SDS011;9887;54.366;10.958;2024-01-07T13:30:48;8.27;;;4.47;;
19492;SDS011;9887;54.366;10.958;2024-01-07T13:33:18;12.00;;;4.85;;
19492;SDS011;9887;54.366;10.958;2024-01-07T13:35:46;11.65;;;4.90;;
19492;SDS011;9887;54.366;10.958;2024-01-07T13:38:14;9.77;;;4.80;;
19492;SDS011;9887;54.366;10.958;2024-01-07T13:40:42;9.15;;;5.07;;
19492;SDS011;9887;54.366;10.958;2024-01-07T13:43:10;7.25;;;4.25;;
19492;SDS011;9887;54.366;10.958;2024-01-07T13:45:38;7.90;;;3.92;;
19492;SDS011;9887;54.366;10.958;2024-01-07T13:48:07;5.88;;;3.67;;
19492;SDS011;9887;54.366;10.958;2024-01-07T13:50:37;6.47;;;3.60;;
19492;SDS011;9887;54.366;10.958;2024-01-07T13:53:05;6.55;;;4.00;;
19492;SDS011;9887;54.366;10.958;2024-01-07T13:55:33;7.90;;;4.00;;
19492;SDS011;9887;54.366;10.958;2024-01-07T13:58:01;7.18;;;4.00;;
19492;SDS011;9887;54.366;10.958;2024-01-07T14:00:30;6.30;;;3.92;;
19492;SDS011;9887;54.366;10.958;2024-01-07T14:02:58;6.30;;;3.78;;
19492;SDS011;9887;54.366;10.958;2024-01-07T14:05:26;6.03;;;3.65;;
19492;SDS011;9887;54.366;10.958;2024-01-07T14:07:55;5.80;;;3.22;;
19492;SDS011;9887;54.366;10.958;2024-01-07T14:10:23;6.70;;;3.53;;
19492;SDS011;9887;54.366;10.958;2024-01-07T14:12:51;5.88;;;3.35;;
19492;SDS011;9887;54.366;10.958;2024-01-07T14:15:19;8.73;;;3.63;;
19492;SDS011;9887;54.366;10.958;2024-01-07T14:17:47;5.57;;;3.03;;
19492;SDS011;9887;54.366;10.958;2024-01-07T14:20:16;4.63;;;2.92;;
19492;SDS011;9887;54.366;10.958;2024-01-07T14:22:44;5.10;;;3.38;;
19492;SDS011;9887;54.366;10.958;2024-01-07T14:25:13;4.55;;;2.90;;
19492;SDS011;9887;54.366;10.958;2024-01-07T14:27:42;5.32;;;3.15;;
19492;SDS011;9887;54.366;10.958;2024-01-07T14:30:11;6.75;;;3.45;;
19492;SDS011;9887;54.366;10.958;2024-01-07T14:32:40;5.97;;;3.10;;
19492;SDS011;9887;54.366;10.958;2024-01-07T14:35:10;6.07;;;3.00;;
19492;SDS011;9887;54.366;10.958;2024-01-07T14:37:39;5.03;;;2.80;;
19492;SDS011;9887;54.366;10.958;2024-01-07T14:40:07;4.78;;;2.90;;
19492;SDS011;9887;54.366;10.958;2024-01-07T14:42:37;5.68;;;2.88;;
19492;SDS011;9887;54.366;10.958;2024-01-07T14:45:06;5.07;;;3.00;;
19492;SDS011;9887;54.366;10.958;2024-01-07T14:47:35;5.45;;;2.70;;
19492;SDS011;9887;54.366;10.958;2024-01-07T14:50:03;5.10;;;2.58;;
19492;SDS011;9887;54.366;10.958;2024-01-07T14:52:34;4.25;;;2.50;;
19492;SDS011;9887;54.366;10.958;2024-01-07T14:55:02;3.90;;;2.17;;